Time;durP1;ratioP1;P1;durP2;ratioP2;P2;SDS_P1;SDS_P2;PMS_P1;PMS_P2;Temp;Humidity;BMP_temperature;BMP_pressure;BME280_temperature;BME280_humidity;BME280_pressure;Samples;Min_cycle;Max_cycle;Signal;HPM_P1;HPM_P2
2022/02/24 00:00:39;;;;;;;6.28;2.67;;;26.20;99.90;;;;;;5029043;28;20033;-79
2022/02/24 00:03:06;;;;;;;8.68;2.78;;;26.00;99.90;;;;;;5022460;28;20041;-75
2022/02/24 00:05:34;;;;;;;6.05;2.97;;;25.80;99.90;;;;;;5027757;28;20017;-80
2022/02/24 00:08:01;;;;;;;7.95;3.47;;;25.80;99.90;;;;;;5028505;28;20108;-79
2022/02/24 00:10:28;;;;;;;9.02;3.15;;;25.80;99.90;;;;;;5024963;28;20104;-78
2022/02/24 00:12:56;;;;;;;7.18;2.85;;;25.80;99.90;;;;;;5024935;28;20030;-79
2022/02/24 00:15:23;;;;;;;7.45;2.88;;;25.90;99.90;;;;;;5027689;28;20034;-85
2022/02/24 00:17:51;;;;;;;7.13;2.92;;;26.00;99.90;;;;;;5030009;28;20021;-82
2022/02/24 00:20:18;;;;;;;6.15;3.50;;;26.10;99.90;;;;;;5023860;28;20096;-81
2022/02/24 00:22:45;;;;;;;7.60;2.80;;;26.10;99.90;;;;;;5024381;28;20024;-80
2022/02/24 00:25:13;;;;;;;10.63;3.25;;;26.10;99.90;;;;;;5031673;28;20032;-76
2022/02/24 00:27:40;;;;;;;7.47;4.28;;;26.20;99.90;;;;;;5028020;28;20381;-77
2022/02/24 00:30:08;;;;;;;6.45;2.42;;;26.40;99.90;;;;;;5029753;28;20112;-83
2022/02/24 00:32:36;;;;;;;5.55;2.42;;;26.60;99.90;;;;;;5025076;28;20053;-77
2022/02/24 00:35:04;;;;;;;4.63;2.50;;;26.70;99.90;;;;;;5026463;28;20074;-76
2022/02/24 00:37:32;;;;;;;7.03;2.50;;;26.80;99.90;;;;;;5029015;28;20064;-77
2022/02/24 00:39:59;;;;;;;6.57;3.55;;;26.90;99.90;;;;;;5030972;28;20029;-75
2022/02/24 00:42:26;;;;;;;3.78;2.38;;;26.80;99.90;;;;;;5028644;28;20079;-75
2022/02/24 00:44:54;;;;;;;5.43;2.92;;;26.70;99.90;;;;;;5022352;28;20071;-79
2022/02/24 00:47:21;;;;;;;5.60;2.40;;;26.60;99.90;;;;;;5026874;28;20091;-79
2022/02/24 00:49:48;;;;;;;6.10;3.30;;;26.50;99.90;;;;;;5029824;28;20071;-82
2022/02/24 00:52:16;;;;;;;10.15;3.38;;;26.50;99.90;;;;;;5027961;28;20035;-78
2022/02/24 00:54:45;;;;;;;6.45;2.33;;;26.60;99.90;;;;;;5028912;28;20427;-76
2022/02/24 00:57:13;;;;;;;4.10;2.53;;;26.60;99.90;;;;;;5028518;28;20034;-78
2022/02/24 00:59:40;;;;;;;6.93;3.00;;;26.70;99.90;;;;;;5027669;28;20037;-82
2022/02/24 01:02:08;;;;;;;6.55;2.53;;;26.80;99.90;;;;;;5026982;28;20029;-81
2022/02/24 01:04:35;;;;;;;9.77;2.78;;;27.00;99.90;;;;;;5029022;28;20139;-77
2022/02/24 01:07:03;;;;;;;5.85;2.35;;;27.30;99.90;;;;;;5030619;28;20110;-74
2022/02/24 01:09:31;;;;;;;5.03;2.85;;;27.40;99.90;;;;;;5021436;28;20034;-80
2022/02/24 01:11:58;;;;;;;4.28;2.58;;;27.40;99.90;;;;;;5022590;28;20117;-74
2022/02/24 01:14:25;;;;;;;4.82;1.98;;;27.30;99.90;;;;;;5028071;28;20053;-76
2022/02/24 01:16:53;;;;;;;3.35;1.80;;;27.20;99.90;;;;;;5028498;28;20026;-77
2022/02/24 01:19:20;;;;;;;7.10;1.88;;;27.00;99.90;;;;;;5030283;28;20456;-75
2022/02/24 01:21:50;;;;;;;3.97;1.52;;;26.90;99.90;;;;;;5025557;28;20030;-77
2022/02/24 01:24:18;;;;;;;5.72;1.50;;;26.90;99.90;;;;;;5027231;28;20029;-76
2022/02/24 01:26:45;;;;;;;7.55;1.83;;;27.10;99.90;;;;;;5022931;28;20033;-75
2022/02/24 01:29:13;;;;;;;4.60;2.55;;;27.40;99.90;;;;;;5027214;28;20037;-76
2022/02/24 01:31:40;;;;;;;3.28;1.55;;;28.10;99.90;;;;;;5030102;28;20025;-74
2022/02/24 01:34:08;;;;;;;5.85;1.40;;;28.90;99.90;;;;;;5028161;28;20029;-75
2022/02/24 01:36:35;;;;;;;2.97;1.33;;;29.40;99.90;;;;;;5026841;28;20086;-77
2022/02/24 01:39:02;;;;;;;3.97;2.03;;;29.80;99.90;;;;;;5028406;28;20040;-74
2022/02/24 01:41:30;;;;;;;2.60;0.65;;;30.10;99.90;;;;;;5026364;28;20357;-74
2022/02/24 01:44:06;;;;;;;1.30;0.98;;;30.20;99.90;;;;;;5023418;28;20025;-76
2022/02/24 01:46:33;;;;;;;5.85;1.27;;;30.20;99.90;;;;;;5026511;28;20018;-75
2022/02/24 01:49:01;;;;;;;4.13;0.80;;;30.20;99.90;;;;;;5024970;28;20042;-74
2022/02/24 01:51:28;;;;;;;2.20;0.60;;;30.20;99.90;;;;;;5027450;28;20560;-77
2022/02/24 01:53:55;;;;;;;2.40;0.88;;;30.10;99.90;;;;;;5030499;28;20029;-80
2022/02/24 01:56:23;;;;;;;5.45;1.33;;;30.00;99.90;;;;;;5029391;28;20464;-75
2022/02/24 01:58:50;;;;;;;7.85;1.45;;;29.80;99.90;;;;;;5024249;28;20037;-76
2022/02/24 02:01:18;;;;;;;3.50;0.88;;;29.90;99.90;;;;;;5029442;28;20025;-80
2022/02/24 02:03:45;;;;;;;5.95;1.40;;;30.20;99.90;;;;;;5018435;28;20102;-75
2022/02/24 02:06:12;;;;;;;5.50;1.48;;;30.40;99.90;;;;;;5026291;28;20036;-77
2022/02/24 02:08:40;;;;;;;3.05;1.73;;;30.90;99.90;;;;;;5023625;28;20033;-80
2022/02/24 02:11:08;;;;;;;7.93;1.90;;;31.30;99.90;;;;;;5028057;28;20091;-74
2022/02/24 02:13:36;;;;;;;2.10;1.27;;;31.30;99.90;;;;;;5026268;28;20073;-78
2022/02/24 02:16:04;;;;;;;5.93;1.80;;;31.40;99.90;;;;;;5026832;28;20041;-75
2022/02/24 02:18:32;;;;;;;3.30;1.10;;;31.30;99.90;;;;;;5026571;28;20040;-75
2022/02/24 02:20:59;;;;;;;4.55;1.20;;;31.30;99.90;;;;;;5027057;28;20029;-74
2022/02/24 02:23:26;;;;;;;1.88;1.00;;;31.40;99.90;;;;;;5023627;28;20041;-76
2022/02/24 02:25:54;;;;;;;3.85;1.70;;;31.20;99.90;;;;;;5024996;28;20041;-75
2022/02/24 02:28:21;;;;;;;6.75;1.95;;;31.10;99.90;;;;;;5025204;28;20030;-74
2022/02/24 02:30:48;;;;;;;3.95;1.10;;;31.20;99.90;;;;;;5019936;28;20065;-74
2022/02/24 02:33:17;;;;;;;1.27;0.88;;;31.10;99.90;;;;;;5055459;28;20515;-73
2022/02/24 02:35:44;;;;;;;4.32;1.52;;;30.60;99.90;;;;;;5028326;28;20033;-73
2022/02/24 02:38:12;;;;;;;4.00;1.67;;;30.20;99.90;;;;;;5023810;28;20057;-72
2022/02/24 02:40:40;;;;;;;4.43;1.00;;;29.70;99.90;;;;;;5024720;28;20089;-73
2022/02/24 02:43:08;;;;;;;6.03;1.25;;;29.40;99.90;;;;;;5017262;28;20451;-75
2022/02/24 02:45:36;;;;;;;5.22;1.55;;;29.10;99.90;;;;;;5024177;28;20083;-73
2022/02/24 02:48:05;;;;;;;4.75;1.58;;;28.80;99.90;;;;;;5024245;28;20112;-73
2022/02/24 02:50:34;;;;;;;5.45;2.25;;;28.70;99.90;;;;;;5021740;28;20088;-72
2022/02/24 02:53:05;;;;;;;5.68;1.00;;;28.60;99.90;;;;;;5021863;28;20021;-73
2022/02/24 02:55:33;;;;;;;7.25;2.53;;;28.50;99.90;;;;;;5026685;28;20029;-74
2022/02/24 02:58:01;;;;;;;2.55;0.98;;;28.50;99.90;;;;;;5024298;28;20025;-72
2022/02/24 03:00:28;;;;;;;4.82;1.80;;;28.40;99.90;;;;;;5033954;28;20034;-73
2022/02/24 03:02:55;;;;;;;7.10;1.65;;;28.30;99.90;;;;;;5030504;28;20033;-73
2022/02/24 03:05:23;;;;;;;6.95;1.58;;;28.00;99.90;;;;;;5030175;28;20107;-73
2022/02/24 03:07:51;;;;;;;4.10;1.10;;;27.80;99.90;;;;;;5020760;28;20026;-73
2022/02/24 03:10:18;;;;;;;4.75;1.25;;;27.20;99.90;;;;;;5027621;28;20065;-76
2022/02/24 03:12:45;;;;;;;2.92;0.75;;;26.70;99.90;;;;;;5027095;28;20048;-75
2022/02/24 03:15:17;;;;;;;6.45;2.00;;;26.40;99.90;;;;;;5022878;28;20056;-71
2022/02/24 03:17:47;;;;;;;8.73;1.50;;;26.20;99.90;;;;;;5029556;28;20036;-72
2022/02/24 03:20:15;;;;;;;7.07;1.30;;;26.10;99.90;;;;;;5034972;28;20052;-71
2022/02/24 03:22:43;;;;;;;10.93;1.92;;;26.00;99.90;;;;;;5019796;28;20030;-73
2022/02/24 03:25:11;;;;;;;4.72;2.08;;;26.00;99.90;;;;;;5028778;28;20029;-73
2022/02/24 03:27:39;;;;;;;7.22;1.35;;;26.00;99.90;;;;;;5019501;28;20026;-73
2022/02/24 03:30:07;;;;;;;4.70;1.33;;;25.90;99.90;;;;;;5031072;28;20041;-74
2022/02/24 03:32:35;;;;;;;7.45;1.40;;;25.90;99.90;;;;;;5027008;28;20021;-72
2022/02/24 03:35:03;;;;;;;8.68;2.28;;;26.00;99.90;;;;;;5031257;28;20033;-75
2022/02/24 03:37:30;;;;;;;37.58;11.95;;;26.00;99.90;;;;;;5024335;28;20186;-72
2022/02/24 03:39:58;;;;;;;11.55;4.03;;;26.00;99.90;;;;;;5026430;28;20083;-74
2022/02/24 03:42:25;;;;;;;12.05;3.20;;;26.10;99.90;;;;;;5027569;28;20032;-73
2022/02/24 03:44:53;;;;;;;8.57;2.40;;;26.00;99.90;;;;;;5028652;28;20753;-75
2022/02/24 03:47:22;;;;;;;8.32;3.03;;;26.10;99.90;;;;;;5029164;28;20113;-76
2022/02/24 03:49:50;;;;;;;5.72;2.15;;;26.10;99.90;;;;;;5025672;28;20041;-72
2022/02/24 03:52:18;;;;;;;9.88;2.35;;;26.10;99.90;;;;;;5014521;28;21700;-74
2022/02/24 03:54:47;;;;;;;6.20;1.35;;;26.10;99.90;;;;;;5029387;28;20402;-72
2022/02/24 03:57:17;;;;;;;8.35;1.73;;;26.10;99.90;;;;;;5027966;28;20094;-72
2022/02/24 03:59:46;;;;;;;7.10;1.48;;;26.00;99.90;;;;;;5022640;28;20038;-72
2022/02/24 04:02:14;;;;;;;6.50;1.65;;;25.90;99.90;;;;;;5027631;28;20022;-74
2022/02/24 04:04:42;;;;;;;7.28;1.35;;;25.70;99.90;;;;;;5023889;28;20112;-74
2022/02/24 04:07:11;;;;;;;6.55;1.00;;;25.60;99.90;;;;;;5020487;28;20342;-72
2022/02/24 04:09:39;;;;;;;4.25;1.08;;;25.50;99.90;;;;;;5020131;28;20048;-72
2022/02/24 04:12:06;;;;;;;5.43;0.88;;;25.10;99.90;;;;;;5021826;28;20026;-72
2022/02/24 04:14:34;;;;;;;4.68;0.70;;;24.80;99.90;;;;;;5017335;28;20081;-75
2022/02/24 04:17:02;;;;;;;4.53;0.90;;;24.60;99.90;;;;;;5027300;28;20049;-76
2022/02/24 04:19:29;;;;;;;8.15;1.77;;;24.10;99.90;;;;;;5024130;28;20026;-74
2022/02/24 04:21:57;;;;;;;4.88;0.98;;;23.70;99.90;;;;;;5027577;28;20472;-73
2022/02/24 04:24:24;;;;;;;4.97;1.17;;;23.30;99.90;;;;;;5026988;28;20037;-74
2022/02/24 04:26:51;;;;;;;5.00;0.73;;;23.10;99.90;;;;;;5027329;28;20026;-76
2022/02/24 04:29:19;;;;;;;5.05;0.75;;;23.10;99.90;;;;;;5030008;28;20033;-74
2022/02/24 04:31:46;;;;;;;5.03;1.25;;;23.10;99.90;;;;;;5022663;28;20030;-73
2022/02/24 04:34:13;;;;;;;8.65;1.58;;;23.20;99.90;;;;;;5026313;28;20464;-72
2022/02/24 04:36:40;;;;;;;4.53;1.40;;;23.30;99.90;;;;;;5019222;28;20127;-74
2022/02/24 04:39:08;;;;;;;8.35;1.83;;;23.40;99.90;;;;;;5020646;28;20025;-72
2022/02/24 04:41:35;;;;;;;9.77;1.63;;;23.60;99.90;;;;;;5017319;28;20487;-73
2022/02/24 04:44:02;;;;;;;10.77;2.33;;;23.70;99.90;;;;;;5027407;28;20109;-73
2022/02/24 04:46:31;;;;;;;5.53;1.67;;;23.90;99.90;;;;;;5020720;28;20116;-73
2022/02/24 04:48:59;;;;;;;10.10;1.27;;;24.10;99.90;;;;;;5026886;28;20060;-73
2022/02/24 04:51:27;;;;;;;4.13;1.02;;;24.30;99.90;;;;;;5017702;28;20397;-74
2022/02/24 04:53:54;;;;;;;7.85;1.48;;;24.40;99.90;;;;;;5024200;28;20439;-74
2022/02/24 04:56:21;;;;;;;3.55;1.08;;;24.70;99.90;;;;;;5012529;28;20046;-76
2022/02/24 04:58:49;;;;;;;8.02;1.77;;;25.00;99.90;;;;;;5014241;28;20034;-75
2022/02/24 05:01:16;;;;;;;5.30;0.80;;;25.20;99.90;;;;;;5026158;28;20096;-74
2022/02/24 05:03:43;;;;;;;3.50;0.68;;;25.50;99.90;;;;;;5024944;28;20037;-73
2022/02/24 05:06:11;;;;;;;3.42;0.73;;;25.70;99.90;;;;;;5021148;28;20040;-73
2022/02/24 05:08:38;;;;;;;3.42;1.15;;;26.00;99.90;;;;;;5019172;28;20498;-73
2022/02/24 05:11:06;;;;;;;3.42;0.63;;;26.10;99.90;;;;;;5020162;28;20025;-74
2022/02/24 05:13:33;;;;;;;6.10;0.90;;;26.20;99.90;;;;;;5019663;28;20396;-73
2022/02/24 05:16:00;;;;;;;5.72;1.33;;;26.40;99.90;;;;;;5015172;28;20034;-74
2022/02/24 05:18:28;;;;;;;6.22;1.25;;;26.50;99.90;;;;;;5025403;28;20033;-74
2022/02/24 05:20:55;;;;;;;4.93;0.50;;;26.50;99.90;;;;;;5043421;28;20028;-74
2022/02/24 05:23:22;;;;;;;5.47;1.45;;;26.60;99.90;;;;;;5018974;28;20033;-74
2022/02/24 05:25:50;;;;;;;4.45;0.80;;;26.60;99.90;;;;;;5009047;28;20018;-74
2022/02/24 05:28:17;;;;;;;4.00;0.70;;;26.50;99.90;;;;;;5026344;28;20040;-73
2022/02/24 05:30:44;;;;;;;2.53;0.63;;;26.60;99.90;;;;;;5016677;28;20369;-74
2022/02/24 05:33:15;;;;;;;2.67;0.47;;;26.60;99.90;;;;;;5021650;28;20103;-75
2022/02/24 05:35:42;;;;;;;3.80;0.65;;;26.70;99.90;;;;;;5020248;28;20025;-73
2022/02/24 05:38:09;;;;;;;3.22;0.85;;;26.70;99.90;;;;;;5019553;28;20361;-73
2022/02/24 05:40:37;;;;;;;3.45;0.65;;;26.70;99.90;;;;;;5022089;28;20384;-77
2022/02/24 05:43:04;;;;;;;4.50;0.60;;;26.80;99.90;;;;;;5017498;28;20494;-73
2022/02/24 05:45:31;;;;;;;2.30;0.50;;;26.80;99.90;;;;;;5020588;28;20048;-73
2022/02/24 05:47:59;;;;;;;1.58;0.32;;;26.80;99.90;;;;;;5019203;28;20037;-74
2022/02/24 05:50:26;;;;;;;1.52;0.40;;;26.90;99.90;;;;;;5020581;28;20136;-74
2022/02/24 05:52:53;;;;;;;6.25;1.05;;;27.00;99.90;;;;;;5020353;28;20029;-74
2022/02/24 05:55:21;;;;;;;3.03;0.65;;;27.00;99.90;;;;;;5019078;28;20060;-75
2022/02/24 05:57:48;;;;;;;1.33;0.60;;;27.20;99.90;;;;;;5018705;28;20022;-75
2022/02/24 06:00:16;;;;;;;6.30;0.85;;;27.20;99.90;;;;;;5022112;28;20037;-77
2022/02/24 06:02:43;;;;;;;3.13;1.08;;;27.20;99.90;;;;;;5020569;28;20032;-75
2022/02/24 06:05:11;;;;;;;2.72;0.45;;;27.10;99.90;;;;;;5024511;28;20125;-76
2022/02/24 06:07:41;;;;;;;2.25;0.40;;;27.10;99.90;;;;;;5021016;28;20543;-76
2022/02/24 06:10:10;;;;;;;3.00;0.43;;;27.00;99.90;;;;;;5020915;28;20107;-75
2022/02/24 06:12:37;;;;;;;5.55;0.73;;;26.90;99.90;;;;;;5019641;28;20036;-74
2022/02/24 06:15:07;;;;;;;2.42;0.30;;;26.90;99.90;;;;;;5013383;28;20038;-75
2022/02/24 06:17:35;;;;;;;1.27;0.30;;;26.90;99.90;;;;;;5019967;28;20112;-73
2022/02/24 06:20:03;;;;;;;9.27;0.73;;;26.90;99.90;;;;;;5028942;28;20120;-74
2022/02/24 06:22:31;;;;;;;1.42;0.20;;;26.90;99.90;;;;;;5027894;28;20515;-75
2022/02/24 06:24:58;;;;;;;0.85;0.30;;;26.90;99.90;;;;;;5016474;28;20045;-74
2022/02/24 06:27:25;;;;;;;1.60;0.35;;;26.90;99.90;;;;;;5024099;28;20029;-74
2022/02/24 06:29:53;;;;;;;2.47;0.98;;;26.90;99.90;;;;;;5029413;28;20045;-76
2022/02/24 06:32:20;;;;;;;3.53;0.50;;;26.90;99.90;;;;;;5027421;28;20045;-75
2022/02/24 06:34:48;;;;;;;4.88;0.50;;;26.90;99.90;;;;;;5032759;28;20452;-75
2022/02/24 06:37:15;;;;;;;6.95;1.15;;;26.90;99.90;;;;;;5025936;28;20026;-74
2022/02/24 06:39:42;;;;;;;2.50;0.52;;;26.90;99.90;;;;;;5026756;28;20026;-75
2022/02/24 06:42:10;;;;;;;1.77;1.17;;;26.80;99.90;;;;;;5038208;28;20358;-75
2022/02/24 06:44:37;;;;;;;1.67;0.35;;;26.70;99.90;;;;;;5022984;28;20483;-74
2022/02/24 06:47:05;;;;;;;6.00;0.75;;;26.70;99.90;;;;;;5021061;28;20392;-75
2022/02/24 06:49:32;;;;;;;4.07;0.75;;;26.60;99.90;;;;;;5032917;28;20045;-76
2022/02/24 06:51:59;;;;;;;4.53;0.50;;;26.60;99.90;;;;;;5026267;28;20149;-76
2022/02/24 06:54:27;;;;;;;2.88;0.50;;;26.50;99.90;;;;;;5024529;28;20026;-76
2022/02/24 06:56:54;;;;;;;1.73;0.50;;;26.40;99.90;;;;;;5021229;28;20679;-75
2022/02/24 06:59:22;;;;;;;1.67;1.15;;;26.30;99.90;;;;;;5023266;28;20468;-73
2022/02/24 07:01:49;;;;;;;2.00;0.50;;;26.20;99.90;;;;;;5024195;28;20542;-75
2022/02/24 07:04:16;;;;;;;3.15;0.93;;;26.00;99.90;;;;;;5025249;28;20106;-77
2022/02/24 07:06:44;;;;;;;3.33;0.40;;;26.00;99.90;;;;;;5022022;28;20041;-77
2022/02/24 07:09:11;;;;;;;2.60;0.75;;;26.00;99.90;;;;;;5022452;28;20064;-75
2022/02/24 07:11:38;;;;;;;4.20;0.77;;;26.00;99.90;;;;;;5024398;28;20087;-75
2022/02/24 07:14:06;;;;;;;5.47;0.43;;;26.10;99.90;;;;;;5023124;28;20412;-74
2022/02/24 07:16:35;;;;;;;3.08;1.33;;;26.10;99.90;;;;;;5027006;28;20030;-76
2022/02/24 07:19:04;;;;;;;3.17;0.38;;;26.10;99.90;;;;;;5026089;28;20100;-75
2022/02/24 07:21:31;;;;;;;3.92;0.98;;;26.10;99.90;;;;;;5031793;28;20602;-75
2022/02/24 07:23:59;;;;;;;3.13;0.60;;;26.10;99.90;;;;;;5030999;28;20033;-74
2022/02/24 07:26:26;;;;;;;4.82;0.50;;;26.00;99.90;;;;;;5031848;28;20021;-74
2022/02/24 07:28:54;;;;;;;5.38;0.60;;;26.00;99.90;;;;;;5029539;28;20037;-76
2022/02/24 07:31:21;;;;;;;4.85;0.47;;;26.00;99.90;;;;;;5033884;28;20056;-77
2022/02/24 07:33:49;;;;;;;4.85;0.60;;;26.00;99.90;;;;;;5021545;28;20033;-74
2022/02/24 07:36:16;;;;;;;3.85;0.80;;;26.00;99.90;;;;;;5022762;28;20049;-75
2022/02/24 07:38:44;;;;;;;4.50;0.47;;;25.90;99.90;;;;;;5020589;28;20047;-76
2022/02/24 07:41:12;;;;;;;4.53;1.13;;;26.00;99.90;;;;;;5033193;28;20037;-74
2022/02/24 07:43:39;;;;;;;2.10;0.50;;;26.00;99.90;;;;;;5028709;28;20065;-74
2022/02/24 07:46:06;;;;;;;2.90;0.80;;;26.00;99.90;;;;;;5030039;28;20037;-75
2022/02/24 07:48:34;;;;;;;2.58;1.02;;;26.00;99.90;;;;;;5025952;28;20037;-74
2022/02/24 07:51:01;;;;;;;2.20;0.40;;;26.00;99.90;;;;;;5021317;28;20060;-75
2022/02/24 07:53:31;;;;;;;1.17;0.32;;;26.00;99.90;;;;;;5032755;28;20214;-74
2022/02/24 07:55:58;;;;;;;2.95;0.50;;;26.00;99.90;;;;;;5034433;28;20063;-76
2022/02/24 07:58:26;;;;;;;7.72;1.38;;;26.00;99.90;;;;;;5030441;28;20113;-74
2022/02/24 08:00:53;;;;;;;3.70;0.60;;;26.00;99.90;;;;;;5036701;28;20026;-73
2022/02/24 08:03:20;;;;;;;5.57;1.15;;;26.00;99.90;;;;;;5035026;28;20105;-76
2022/02/24 08:05:47;;;;;;;0.88;0.38;;;26.00;99.90;;;;;;5034288;28;20026;-74
2022/02/24 08:08:15;;;;;;;3.40;0.63;;;25.90;99.90;;;;;;5028157;28;20504;-74
2022/02/24 08:10:42;;;;;;;1.98;0.40;;;25.90;99.90;;;;;;5034212;28;20039;-75
2022/02/24 08:13:09;;;;;;;3.75;1.25;;;25.80;99.90;;;;;;5030977;28;20049;-74
2022/02/24 08:15:37;;;;;;;3.05;0.70;;;25.80;99.90;;;;;;5023186;28;20125;-73
2022/02/24 08:18:04;;;;;;;3.42;0.60;;;25.70;99.90;;;;;;5022426;28;20033;-76
2022/02/24 08:20:31;;;;;;;2.90;0.50;;;25.80;99.90;;;;;;5021527;28;20091;-73
2022/02/24 08:23:01;;;;;;;3.25;0.57;;;25.70;99.90;;;;;;5025940;28;20032;-75
2022/02/24 08:25:29;;;;;;;2.15;0.73;;;25.70;99.90;;;;;;5031555;28;20029;-73
2022/02/24 08:27:58;;;;;;;5.25;1.40;;;25.70;99.90;;;;;;5034249;28;20026;-75
2022/02/24 08:30:25;;;;;;;2.25;0.50;;;25.70;99.90;;;;;;5021581;28;20124;-75
2022/02/24 08:32:54;;;;;;;5.47;0.70;;;25.60;99.90;;;;;;5024902;28;20353;-74
2022/02/24 08:35:25;;;;;;;4.53;0.50;;;25.60;99.90;;;;;;5025475;28;20030;-76
2022/02/24 08:37:53;;;;;;;1.48;0.45;;;25.60;99.90;;;;;;5020004;28;20034;-74
2022/02/24 08:40:22;;;;;;;1.80;0.45;;;25.50;99.90;;;;;;5056058;28;20410;-76
2022/02/24 08:42:51;;;;;;;8.18;0.60;;;25.50;99.90;;;;;;5022022;28;20026;-75
2022/02/24 08:45:22;;;;;;;2.53;0.60;;;25.50;99.90;;;;;;5020165;28;20112;-76
2022/02/24 08:47:49;;;;;;;4.65;1.45;;;25.30;99.90;;;;;;5018700;28;20107;-74
2022/02/24 08:50:20;;;;;;;3.72;0.90;;;25.30;99.90;;;;;;5021562;28;20049;-73
2022/02/24 08:52:48;;;;;;;4.32;0.65;;;25.30;99.90;;;;;;5019897;28;20033;-74
2022/02/24 08:55:15;;;;;;;3.25;0.82;;;25.30;99.90;;;;;;5021666;28;20466;-75
2022/02/24 08:57:42;;;;;;;4.20;0.68;;;25.20;99.90;;;;;;5020288;28;20029;-76
2022/02/24 09:00:10;;;;;;;4.78;0.93;;;25.20;99.90;;;;;;5026388;28;20053;-74
2022/02/24 09:02:37;;;;;;;4.47;0.70;;;25.20;99.90;;;;;;5025260;28;20052;-75
2022/02/24 09:05:05;;;;;;;8.75;1.92;;;25.20;99.90;;;;;;5026128;28;20033;-76
2022/02/24 09:07:33;;;;;;;2.00;0.60;;;25.20;99.90;;;;;;5033361;28;20492;-76
2022/02/24 09:10:01;;;;;;;3.75;0.65;;;25.20;99.90;;;;;;5023118;28;20445;-76
2022/02/24 09:12:28;;;;;;;8.00;1.00;;;25.20;99.90;;;;;;5019974;28;20484;-75
2022/02/24 09:14:55;;;;;;;5.53;0.68;;;25.10;99.90;;;;;;5022171;28;20131;-76
2022/02/24 09:17:23;;;;;;;2.63;0.50;;;25.20;99.90;;;;;;5019150;28;20068;-76
2022/02/24 09:19:50;;;;;;;5.00;0.70;;;25.20;99.90;;;;;;5021526;28;20446;-75
2022/02/24 09:22:17;;;;;;;2.08;0.50;;;25.20;99.90;;;;;;5019956;28;20415;-76
2022/02/24 09:24:45;;;;;;;7.63;1.77;;;25.20;99.90;;;;;;5022483;28;20033;-76
2022/02/24 09:27:12;;;;;;;6.05;1.00;;;25.00;99.90;;;;;;5019655;28;20523;-77
2022/02/24 09:29:39;;;;;;;2.47;0.65;;;25.00;99.90;;;;;;5019525;28;20049;-75
2022/02/24 09:32:07;;;;;;;2.50;0.68;;;25.00;99.90;;;;;;5020438;28;20029;-76
2022/02/24 09:34:34;;;;;;;2.78;0.70;;;24.90;99.90;;;;;;5019936;28;20045;-76
2022/02/24 09:37:02;;;;;;;3.63;0.70;;;24.90;99.90;;;;;;5019306;28;20026;-77
2022/02/24 09:39:29;;;;;;;4.53;1.40;;;24.80;99.90;;;;;;5024549;28;20037;-75
2022/02/24 09:41:57;;;;;;;4.30;0.60;;;24.80;99.90;;;;;;5018224;28;20033;-76
2022/02/24 09:44:24;;;;;;;2.78;1.65;;;24.80;99.90;;;;;;5017704;28;20044;-72
2022/02/24 09:46:53;;;;;;;5.22;1.05;;;24.80;99.90;;;;;;5018424;28;20036;-74
2022/02/24 09:49:21;;;;;;;4.80;0.57;;;24.70;99.90;;;;;;5020431;28;20041;-78
2022/02/24 09:51:48;;;;;;;5.82;0.60;;;24.70;99.90;;;;;;5020697;28;20818;-74
2022/02/24 09:54:16;;;;;;;3.90;0.82;;;24.70;99.90;;;;;;5021372;28;20044;-75
2022/02/24 09:56:43;;;;;;;3.20;0.80;;;24.70;99.90;;;;;;5020410;28;20399;-72
2022/02/24 09:59:12;;;;;;;4.53;1.10;;;24.60;99.90;;;;;;5018379;28;20074;-74
2022/02/24 10:01:40;;;;;;;2.38;1.13;;;24.60;99.90;;;;;;5019782;28;20119;-75
2022/02/24 10:04:10;;;;;;;7.38;2.58;;;24.50;99.90;;;;;;5018022;28;20611;-75
2022/02/24 10:06:43;;;;;;;4.47;0.75;;;24.40;99.90;;;;;;5020974;28;20033;-76
2022/02/24 10:09:18;;;;;;;8.90;1.10;;;24.50;99.90;;;;;;5024724;28;20439;-75
2022/02/24 10:11:46;;;;;;;4.53;1.35;;;24.50;99.90;;;;;;5023036;28;20030;-75
2022/02/24 10:14:25;;;;;;;2.65;0.55;;;24.60;99.90;;;;;;5024322;28;20045;-75
2022/02/24 10:17:02;;;;;;;5.28;0.50;;;24.60;99.90;;;;;;5023020;28;20433;-74
2022/02/24 10:19:47;;;;;;;4.90;1.23;;;24.70;99.90;;;;;;5023008;28;20113;-77
2022/02/24 10:22:34;;;;;;;3.53;0.90;;;24.60;99.90;;;;;;5026416;28;20033;-76
2022/02/24 10:25:04;;;;;;;5.93;0.88;;;24.60;99.90;;;;;;5030166;28;20033;-78
2022/02/24 10:27:35;;;;;;;4.95;1.33;;;24.50;99.90;;;;;;5028468;28;20055;-77
2022/02/24 10:30:13;;;;;;;4.85;1.17;;;24.40;99.90;;;;;;5033106;28;20029;-74
2022/02/24 10:32:43;;;;;;;4.00;1.27;;;24.30;99.90;;;;;;5021026;28;20128;-74
2022/02/24 10:35:40;;;;;;;8.55;0.73;;;24.20;99.90;;;;;;5031960;28;20033;-76
2022/02/24 10:38:13;;;;;;;5.70;0.88;;;24.10;99.90;;;;;;5017705;28;20034;-77
2022/02/24 10:40:43;;;;;;;1.73;0.45;;;24.00;99.90;;;;;;5033054;28;20025;-76
2022/02/24 10:43:21;;;;;;;6.75;1.75;;;23.90;99.90;;;;;;5032352;28;20029;-77
2022/02/24 10:46:17;;;;;;;6.90;0.80;;;23.80;99.90;;;;;;5023853;28;20021;-76
2022/02/24 10:48:57;;;;;;;1.45;0.50;;;23.80;99.90;;;;;;5027645;28;20033;-73
2022/02/24 10:51:33;;;;;;;7.45;1.65;;;23.70;99.90;;;;;;5026859;28;20065;-75
2022/02/24 10:54:01;;;;;;;;;;;23.70;99.90;;;;;;5021875;28;20143;-73
2022/02/24 10:56:29;;;;;;;2.60;0.60;;;23.60;99.90;;;;;;5022759;28;20425;-74
2022/02/24 10:58:56;;;;;;;2.65;0.80;;;23.50;99.90;;;;;;5028566;28;20041;-73
2022/02/24 11:01:26;;;;;;;3.70;0.40;;;23.50;99.90;;;;;;5026836;28;20040;-75
2022/02/24 11:04:00;;;;;;;5.47;1.00;;;23.60;99.90;;;;;;5029136;28;20516;-75
2022/02/24 11:06:33;;;;;;;3.93;0.60;;;23.50;99.90;;;;;;5028956;28;20033;-74
2022/02/24 11:09:01;;;;;;;3.97;0.50;;;23.50;99.90;;;;;;5021725;28;20290;-72
2022/02/24 11:11:36;;;;;;;2.50;0.60;;;23.30;99.90;;;;;;5031103;28;20112;-74
2022/02/24 11:14:08;;;;;;;3.30;0.77;;;23.30;99.90;;;;;;5029435;28;20052;-74
2022/02/24 11:16:35;;;;;;;2.92;0.40;;;23.30;99.90;;;;;;5024722;28;20116;-76
2022/02/24 11:19:03;;;;;;;2.78;0.30;;;23.20;99.90;;;;;;5028317;28;20048;-73
2022/02/24 11:21:31;;;;;;;1.88;0.95;;;23.10;99.90;;;;;;5028741;28;20028;-73
2022/02/24 11:23:59;;;;;;;4.15;0.70;;;23.10;99.90;;;;;;5019239;28;20033;-73
2022/02/24 11:26:52;;;;;;;5.63;0.85;;;23.00;99.90;;;;;;5024698;28;20064;-75
2022/02/24 11:29:32;;;;;;;2.28;0.45;;;22.90;99.90;;;;;;5027226;28;20061;-77
2022/02/24 11:32:06;;;;;;;2.20;0.40;;;22.80;99.90;;;;;;5027945;28;20100;-76
2022/02/24 11:35:00;;;;;;;1.88;0.75;;;22.80;99.90;;;;;;5027793;28;20036;-73
2022/02/24 11:37:35;;;;;;;2.97;0.50;;;22.80;99.90;;;;;;5020656;28;20029;-74
2022/02/24 11:40:08;;;;;;;1.83;0.50;;;22.80;99.90;;;;;;5030100;28;20035;-76
2022/02/24 11:42:46;;;;;;;2.25;0.50;;;22.80;99.90;;;;;;5027999;28;20059;-73
2022/02/24 11:45:26;;;;;;;3.83;0.50;;;22.80;99.90;;;;;;5017027;28;20034;-75
2022/02/24 11:48:12;;;;;;;2.22;0.63;;;22.80;99.90;;;;;;5028716;28;20108;-74
2022/02/24 11:50:40;;;;;;;7.13;0.70;;;22.80;99.90;;;;;;5027768;28;20111;-77
2022/02/24 11:53:29;;;;;;;1.58;0.47;;;22.80;99.90;;;;;;5020549;28;20030;-78
2022/02/24 11:56:01;;;;;;;3.17;0.40;;;22.80;99.90;;;;;;5014590;28;20741;-76
2022/02/24 11:58:34;;;;;;;1.63;0.30;;;22.90;99.90;;;;;;5030118;28;20025;-76
2022/02/24 12:01:24;;;;;;;1.55;0.40;;;22.90;99.90;;;;;;5024309;28;20049;-74
2022/02/24 12:03:52;;;;;;;0.80;0.22;;;22.80;99.90;;;;;;5027081;28;20333;-76
2022/02/24 12:06:21;;;;;;;3.60;0.63;;;22.80;99.90;;;;;;5032035;28;20353;-74
2022/02/24 12:09:24;;;;;;;2.75;0.52;;;22.70;99.90;;;;;;5029200;28;20594;-75
2022/02/24 12:12:03;;;;;;;2.75;0.65;;;22.70;99.90;;;;;;5000901;28;20041;-78
2022/02/24 12:14:33;;;;;;;1.98;0.55;;;22.70;99.90;;;;;;5021709;28;20547;-76
2022/02/24 12:17:04;;;;;;;2.08;0.60;;;22.70;99.90;;;;;;5022677;28;20467;-73
2022/02/24 12:19:41;;;;;;;2.17;0.20;;;22.80;99.90;;;;;;5030999;28;20076;-75
2022/02/24 12:22:26;;;;;;;2.47;0.55;;;22.90;99.90;;;;;;5025173;28;20056;-74
2022/02/24 12:25:03;;;;;;;0.95;0.57;;;22.90;99.90;;;;;;5025953;28;20029;-75
2022/02/24 12:27:30;;;;;;;2.10;0.20;;;23.00;99.90;;;;;;5028171;28;20033;-75
2022/02/24 12:30:02;;;;;;;4.13;0.57;;;23.00;99.90;;;;;;5029219;28;20507;-78
2022/02/24 12:32:41;;;;;;;2.00;0.20;;;23.00;99.90;;;;;;5028460;28;20033;-76
2022/02/24 12:35:11;;;;;;;1.50;0.15;;;23.10;99.90;;;;;;5025413;28;20108;-75
2022/02/24 12:37:40;;;;;;;2.53;0.40;;;23.10;99.90;;;;;;5018372;28;20617;-77
2022/02/24 12:40:09;;;;;;;1.08;0.30;;;23.00;99.90;;;;;;5025568;28;20021;-74
2022/02/24 12:42:37;;;;;;;0.90;0.28;;;23.00;99.90;;;;;;5024280;28;20033;-77
2022/02/24 12:45:05;;;;;;;0.28;0.20;;;23.00;99.90;;;;;;5024142;28;20042;-74
2022/02/24 12:47:33;;;;;;;1.63;0.35;;;22.90;99.90;;;;;;5022374;28;20025;-75
2022/02/24 12:50:00;;;;;;;2.30;0.20;;;22.90;99.90;;;;;;5026626;28;20106;-76
2022/02/24 12:52:30;;;;;;;0.73;0.20;;;22.80;99.90;;;;;;5018905;28;20034;-75
2022/02/24 12:54:58;;;;;;;3.92;0.47;;;22.70;99.90;;;;;;5014962;28;20014;-74
2022/02/24 12:57:26;;;;;;;1.65;0.40;;;22.70;99.90;;;;;;5025558;28;20407;-76